createdAt,value
2022-10-22T00:01:07.302Z,2.10
2022-10-22T00:03:35.557Z,1.87
2022-10-22T00:06:03.527Z,2.87
2022-10-22T00:08:31.392Z,3.93
2022-10-22T00:10:58.961Z,2.47
2022-10-22T00:13:26.526Z,1.70
2022-10-22T00:15:53.404Z,2.40
2022-10-22T00:18:20.247Z,4.77
2022-10-22T00:20:47.986Z,1.73
2022-10-22T00:23:16.192Z,1.83
2022-10-22T00:25:43.063Z,4.07
2022-10-22T00:28:11.829Z,3.13
2022-10-22T00:30:39.375Z,3.83
2022-10-22T00:33:07.682Z,1.10
2022-10-22T00:35:36.778Z,2.47
2022-10-22T00:38:04.867Z,1.10
2022-10-22T00:40:32.443Z,2.03
2022-10-22T00:43:00.059Z,3.07
2022-10-22T00:45:28.929Z,1.63
2022-10-22T00:48:07.305Z,1.73
2022-10-22T00:50:47.681Z,7.57
2022-10-22T00:53:19.525Z,2.50
2022-10-22T00:55:51.874Z,1.80
2022-10-22T00:58:22.949Z,2.63
2022-10-22T01:00:50.722Z,1.43
2022-10-22T01:03:18.343Z,1.10
2022-10-22T01:05:58.657Z,1.53
2022-10-22T01:08:35.216Z,2.47
2022-10-22T01:11:13.659Z,3.20
2022-10-22T01:14:03.798Z,2.33
2022-10-22T01:17:04.331Z,2.97
2022-10-22T01:19:50.164Z,2.80
2022-10-22T01:22:25.978Z,3.17
2022-10-22T01:25:07.890Z,3.17
2022-10-22T01:27:43.487Z,2.30
2022-10-22T01:30:14.570Z,3.97
2022-10-22T01:32:49.693Z,3.27
2022-10-22T01:35:23.187Z,2.13
2022-10-22T01:37:57.733Z,3.00
2022-10-22T01:40:28.489Z,3.73
2022-10-22T01:43:04.412Z,2.20
2022-10-22T01:45:47.329Z,2.57
2022-10-22T01:48:27.413Z,1.80
2022-10-22T01:51:45.222Z,2.70
2022-10-22T01:54:44.391Z,2.37
2022-10-22T01:57:21.062Z,3.13
2022-10-22T01:59:57.605Z,3.07
2022-10-22T02:02:30.057Z,4.13
2022-10-22T02:05:13.081Z,2.83
2022-10-22T02:08:09.512Z,3.20
2022-10-22T02:10:43.541Z,4.40
2022-10-22T02:13:17.306Z,2.40
2022-10-22T02:15:49.074Z,1.93
2022-10-22T02:18:18.330Z,1.73
2022-10-22T02:20:45.231Z,1.60
2022-10-22T02:23:12.525Z,2.47
2022-10-22T02:25:44.186Z,2.50
2022-10-22T02:28:29.160Z,3.07
2022-10-22T02:31:07.126Z,3.17
2022-10-22T02:33:41.619Z,3.00
2022-10-22T02:36:09.289Z,2.60
2022-10-22T02:38:37.085Z,3.27
2022-10-22T02:41:04.354Z,1.90
2022-10-22T02:43:41.776Z,1.93
2022-10-22T02:46:10.234Z,3.47
2022-10-22T02:48:38.777Z,4.50
2022-10-22T02:51:07.309Z,2.60
2022-10-22T02:53:35.394Z,5.27
2022-10-22T02:56:03.985Z,3.17
2022-10-22T02:58:32.236Z,2.70
2022-10-22T03:00:59.839Z,1.30
2022-10-22T03:03:28.426Z,1.83
2022-10-22T03:05:56.025Z,5.27
2022-10-22T03:08:24.282Z,2.50
2022-10-22T03:10:52.414Z,2.60
2022-10-22T03:13:20.097Z,2.13
2022-10-22T03:15:51.730Z,2.57
2022-10-22T03:18:20.679Z,2.30
2022-10-22T03:20:48.202Z,1.90
2022-10-22T03:23:18.451Z,3.10
2022-10-22T03:25:48.309Z,3.40
2022-10-22T03:28:17.324Z,1.87
2022-10-22T03:30:44.881Z,3.07
2022-10-22T03:33:12.510Z,2.77
2022-10-22T03:35:45.503Z,1.50
2022-10-22T03:38:14.593Z,2.53
2022-10-22T03:40:45.632Z,2.17
2022-10-22T03:43:15.486Z,2.53
2022-10-22T03:45:43.801Z,2.40
2022-10-22T03:48:11.442Z,2.30
2022-10-22T03:50:38.355Z,3.17
2022-10-22T03:53:08.644Z,2.73
2022-10-22T03:55:35.497Z,1.63
2022-10-22T03:58:04.559Z,3.67
2022-10-22T04:00:34.622Z,4.30
2022-10-22T04:03:02.267Z,3.13
2022-10-22T04:05:33.819Z,4.07
2022-10-22T04:08:02.007Z,3.00
2022-10-22T04:10:30.325Z,2.60
2022-10-22T04:12:57.191Z,2.13
2022-10-22T04:15:28.138Z,2.53
2022-10-22T04:17:56.487Z,2.07
2022-10-22T04:20:25.238Z,2.27
2022-10-22T04:22:53.535Z,3.23
2022-10-22T04:25:23.241Z,1.80
2022-10-22T04:27:50.773Z,3.33
2022-10-22T04:30:19.047Z,2.57
2022-10-22T04:32:46.618Z,2.37
2022-10-22T04:35:15.090Z,1.83
2022-10-22T04:37:42.866Z,1.80
2022-10-22T04:40:11.509Z,1.47
2022-10-22T04:42:39.404Z,1.53
2022-10-22T04:45:07.418Z,1.83
2022-10-22T04:47:34.355Z,2.73
2022-10-22T04:50:02.035Z,2.30
2022-10-22T04:52:31.369Z,3.10
2022-10-22T04:54:59.822Z,2.97
2022-10-22T04:57:31.033Z,2.50
2022-10-22T04:59:59.417Z,1.97
2022-10-22T05:02:26.586Z,3.23
2022-10-22T05:04:54.341Z,3.87
2022-10-22T05:07:23.885Z,2.97
2022-10-22T05:09:53.720Z,2.17
2022-10-22T05:12:21.951Z,2.17
2022-10-22T05:14:49.989Z,5.07
2022-10-22T05:17:19.076Z,2.10
2022-10-22T05:19:48.078Z,1.77
2022-10-22T05:22:15.697Z,1.20
2022-10-22T05:24:43.288Z,3.30
2022-10-22T05:27:11.530Z,2.10
2022-10-22T05:29:39.718Z,3.63
2022-10-22T05:32:09.142Z,3.53
2022-10-22T05:34:36.330Z,3.57
2022-10-22T05:37:03.586Z,2.80
2022-10-22T05:39:31.329Z,1.93
2022-10-22T05:41:59.587Z,4.23
2022-10-22T05:44:27.102Z,3.77
2022-10-22T05:46:54.983Z,2.53
2022-10-22T05:49:23.666Z,3.57
2022-10-22T05:51:52.006Z,1.93
2022-10-22T05:54:22.137Z,4.37
2022-10-22T05:56:50.651Z,2.43
2022-10-22T05:59:18.253Z,1.23
2022-10-22T06:01:46.997Z,2.07
2022-10-22T06:04:16.205Z,2.57
2022-10-22T06:06:50.250Z,4.43
2022-10-22T06:09:23.565Z,3.10
2022-10-22T06:11:51.778Z,1.90
2022-10-22T06:14:20.490Z,4.73
2022-10-22T06:16:48.836Z,4.93
2022-10-22T06:19:18.222Z,3.60
2022-10-22T06:21:46.602Z,4.83
2022-10-22T06:24:15.045Z,2.90
2022-10-22T06:26:43.865Z,4.57
2022-10-22T06:29:11.606Z,4.07
2022-10-22T06:31:39.814Z,3.60
2022-10-22T06:34:11.038Z,2.80
2022-10-22T06:36:38.875Z,5.63
2022-10-22T06:39:11.122Z,3.67
2022-10-22T06:41:40.114Z,3.27
2022-10-22T06:44:08.998Z,3.67
2022-10-22T06:46:39.040Z,4.47
2022-10-22T06:49:14.434Z,3.40
2022-10-22T06:51:43.230Z,5.23
2022-10-22T06:54:11.717Z,2.90
2022-10-22T06:56:39.563Z,3.77
2022-10-22T06:59:07.165Z,4.00
2022-10-22T07:01:35.505Z,7.23
2022-10-22T07:04:04.830Z,3.63
2022-10-22T07:06:33.082Z,3.53
2022-10-22T07:09:00.625Z,5.20
2022-10-22T07:11:32.701Z,4.47
2022-10-22T07:14:01.500Z,4.07
2022-10-22T07:16:32.173Z,4.37
2022-10-22T07:19:03.079Z,5.23
2022-10-22T07:21:32.708Z,4.70
2022-10-22T07:24:01.038Z,8.80
2022-10-22T07:26:31.145Z,5.37
2022-10-22T07:29:00.569Z,5.47
2022-10-22T07:31:28.193Z,6.10
2022-10-22T07:33:57.137Z,4.97
2022-10-22T07:36:25.478Z,5.93
2022-10-22T07:38:57.435Z,5.27
2022-10-22T07:41:25.589Z,4.83
2022-10-22T07:43:52.605Z,6.13
2022-10-22T07:46:20.711Z,3.80
2022-10-22T07:48:49.285Z,5.37
2022-10-22T07:51:19.559Z,4.80
2022-10-22T07:53:47.103Z,4.30
2022-10-22T07:56:14.685Z,5.43
2022-10-22T07:58:42.893Z,5.53
2022-10-22T08:01:11.478Z,5.80
2022-10-22T08:03:38.534Z,4.90
2022-10-22T08:06:06.524Z,5.10
2022-10-22T08:08:34.809Z,5.50
2022-10-22T08:11:03.498Z,5.70
2022-10-22T08:13:31.058Z,5.73
2022-10-22T08:16:00.295Z,4.50
2022-10-22T08:18:28.822Z,4.80
2022-10-22T08:20:57.170Z,7.47
2022-10-22T08:23:28.296Z,5.73
2022-10-22T08:25:57.817Z,5.37
2022-10-22T08:28:28.818Z,5.27
2022-10-22T08:30:56.032Z,5.23
2022-10-22T08:33:22.907Z,4.77
2022-10-22T08:35:50.717Z,4.50
2022-10-22T08:38:19.540Z,4.80
2022-10-22T08:40:53.043Z,4.37
2022-10-22T08:43:38.961Z,8.10
2022-10-22T08:46:17.774Z,4.23
2022-10-22T08:48:55.974Z,5.97
2022-10-22T08:51:31.230Z,4.23
2022-10-22T08:54:25.040Z,5.57
2022-10-22T08:57:35.888Z,5.27
2022-10-22T09:00:30.456Z,4.40
2022-10-22T09:03:47.758Z,5.87
2022-10-22T09:06:24.281Z,4.37
2022-10-22T09:08:53.399Z,6.23
2022-10-22T09:11:32.880Z,3.73
2022-10-22T09:14:02.550Z,6.37
2022-10-22T09:16:57.145Z,3.73
2022-10-22T09:19:59.155Z,5.50
2022-10-22T09:22:51.024Z,5.27
2022-10-22T09:25:26.121Z,4.37
2022-10-22T09:27:58.738Z,6.77
2022-10-22T09:30:33.425Z,4.20
2022-10-22T09:33:10.618Z,4.70
2022-10-22T09:35:57.238Z,4.90
2022-10-22T09:38:31.507Z,5.80
2022-10-22T09:41:01.045Z,5.87
2022-10-22T09:43:28.633Z,4.53
2022-10-22T09:46:02.521Z,6.13
2022-10-22T09:48:34.686Z,5.07
2022-10-22T09:51:23.581Z,7.33
2022-10-22T09:53:59.952Z,5.73
2022-10-22T09:56:36.786Z,4.30
2022-10-22T09:59:04.551Z,5.30
2022-10-22T10:01:35.613Z,7.23
2022-10-22T10:04:10.051Z,5.70
2022-10-22T10:06:40.505Z,6.40
2022-10-22T10:09:22.493Z,6.37
2022-10-22T10:12:01.904Z,6.83
2022-10-22T10:15:17.920Z,6.27
2022-10-22T10:18:01.583Z,5.70
2022-10-22T10:20:35.478Z,5.97
2022-10-22T10:23:10.911Z,4.23
2022-10-22T10:25:46.199Z,5.30
2022-10-22T10:28:32.334Z,8.03
2022-10-22T10:31:15.699Z,6.53
2022-10-22T10:34:16.487Z,8.07
2022-10-22T10:37:23.531Z,7.07
2022-10-22T10:40:18.876Z,5.17
2022-10-22T10:43:00.598Z,6.77
2022-10-22T10:45:55.494Z,6.70
2022-10-22T10:48:39.132Z,8.17
2022-10-22T10:51:12.693Z,4.53
2022-10-22T10:53:54.143Z,4.37
2022-10-22T10:56:47.332Z,7.83
2022-10-22T10:59:38.014Z,4.77
2022-10-22T11:02:38.083Z,8.03
2022-10-22T11:05:30.748Z,5.57
2022-10-22T11:08:14.713Z,5.60
2022-10-22T11:10:51.858Z,5.63
2022-10-22T11:13:43.192Z,5.30
2022-10-22T11:16:14.837Z,6.27
2022-10-22T11:18:47.347Z,6.80
2022-10-22T11:21:21.766Z,5.27
2022-10-22T11:24:08.109Z,6.13
2022-10-22T11:26:46.786Z,6.73
2022-10-22T11:29:33.742Z,8.10
2022-10-22T11:32:02.963Z,9.07
2022-10-22T11:34:40.102Z,6.90
2022-10-22T11:37:11.505Z,7.10
2022-10-22T11:39:53.974Z,5.17
2022-10-22T11:42:44.066Z,8.07
2022-10-22T11:45:15.473Z,7.07
2022-10-22T11:48:19.313Z,6.47
2022-10-22T11:51:00.064Z,6.37
2022-10-22T11:53:36.751Z,7.40
2022-10-22T11:56:23.166Z,6.40
2022-10-22T11:58:54.816Z,5.90
2022-10-22T12:01:26.057Z,11.03
2022-10-22T12:04:13.592Z,7.03
2022-10-22T12:06:59.835Z,4.87
2022-10-22T12:09:32.889Z,6.87
2022-10-22T12:12:15.725Z,9.87
2022-10-22T12:14:57.429Z,6.47
2022-10-22T12:17:28.163Z,4.57
2022-10-22T12:20:13.836Z,7.30
2022-10-22T12:22:42.388Z,6.83
2022-10-22T12:25:22.932Z,13.67
2022-10-22T12:28:12.735Z,13.80
2022-10-22T12:30:41.464Z,11.63
2022-10-22T12:33:20.337Z,10.10
2022-10-22T12:35:52.877Z,8.27
2022-10-22T12:38:24.129Z,7.87
2022-10-22T12:40:54.262Z,7.53
2022-10-22T12:43:30.982Z,7.17
2022-10-22T12:45:59.799Z,10.93
2022-10-22T12:48:35.726Z,9.07
2022-10-22T12:51:08.132Z,9.43
2022-10-22T12:53:44.274Z,8.30
2022-10-22T12:56:20.809Z,13.43
2022-10-22T12:58:57.174Z,9.07
2022-10-22T13:01:28.418Z,14.77
2022-10-22T13:04:26.882Z,13.03
2022-10-22T13:07:16.934Z,10.37
2022-10-22T13:09:58.269Z,11.57
2022-10-22T13:12:36.718Z,11.57
2022-10-22T13:15:35.093Z,12.00
2022-10-22T13:18:23.213Z,14.00
2022-10-22T13:20:55.198Z,14.20
2022-10-22T13:23:25.399Z,12.33
2022-10-22T13:26:04.586Z,15.43
2022-10-22T13:28:32.896Z,17.50
2022-10-22T13:31:09.175Z,14.90
2022-10-22T13:33:43.735Z,14.03
2022-10-22T13:36:16.450Z,14.77
2022-10-22T13:38:44.822Z,13.73
2022-10-22T13:41:28.054Z,13.83
2022-10-22T13:43:55.709Z,14.17
2022-10-22T13:46:25.790Z,11.57
2022-10-22T13:48:56.269Z,13.50
2022-10-22T13:51:34.996Z,12.40
2022-10-22T13:54:04.330Z,10.60
2022-10-22T13:56:32.389Z,13.53
2022-10-22T13:59:00.017Z,13.97
2022-10-22T14:01:28.339Z,12.43
2022-10-22T14:03:59.122Z,11.37
2022-10-22T14:06:31.349Z,16.87
2022-10-22T14:09:03.742Z,15.63
2022-10-22T14:11:32.836Z,14.57
2022-10-22T14:14:08.873Z,14.50
2022-10-22T14:16:38.183Z,11.23
2022-10-22T14:19:10.414Z,16.70
2022-10-22T14:21:38.826Z,12.33
2022-10-22T14:24:08.441Z,11.93
2022-10-22T14:26:38.498Z,14.67
2022-10-22T14:29:10.607Z,14.63
2022-10-22T14:34:12.361Z,20.00
2022-10-22T14:36:44.028Z,20.07
2022-10-22T14:39:13.753Z,17.20
2022-10-22T14:41:42.465Z,19.40
2022-10-22T14:44:14.326Z,23.37
2022-10-22T14:46:44.461Z,21.43
2022-10-22T14:49:12.945Z,24.57
2022-10-22T14:51:40.972Z,20.73
2022-10-22T14:54:10.115Z,23.47
2022-10-22T14:56:38.734Z,24.43
2022-10-22T14:59:07.920Z,21.97
2022-10-22T15:01:35.703Z,20.13
2022-10-22T15:04:03.521Z,18.43
2022-10-22T15:06:31.410Z,20.83
2022-10-22T15:09:00.520Z,20.07
2022-10-22T15:11:30.728Z,25.93
2022-10-22T15:13:59.820Z,24.43
2022-10-22T15:16:30.203Z,25.73
2022-10-22T15:18:59.827Z,36.67
2022-10-22T15:21:28.231Z,30.90
2022-10-22T15:23:56.767Z,35.80
2022-10-22T15:26:25.127Z,31.00
2022-10-22T15:28:52.767Z,36.83
2022-10-22T15:31:42.791Z,35.57
2022-10-22T15:34:11.316Z,38.13
2022-10-22T15:36:39.538Z,31.17
2022-10-22T15:39:10.095Z,23.60
2022-10-22T15:41:39.530Z,25.13
2022-10-22T15:44:08.627Z,28.53
2022-10-22T15:46:37.378Z,18.40
2022-10-22T15:49:05.702Z,18.60
2022-10-22T15:51:34.038Z,15.83
2022-10-22T15:54:07.799Z,18.20
2022-10-22T15:56:38.685Z,17.83
2022-10-22T15:59:06.312Z,17.00
2022-10-22T16:01:35.542Z,20.83
2022-10-22T16:04:06.271Z,18.23
2022-10-22T16:06:37.039Z,21.07
2022-10-22T16:09:09.119Z,19.93
2022-10-22T16:11:37.769Z,28.90
2022-10-22T16:14:06.703Z,26.43
2022-10-22T16:16:36.514Z,29.07
2022-10-22T16:19:04.737Z,35.03
2022-10-22T16:21:32.973Z,32.43
2022-10-22T16:24:06.105Z,36.97
2022-10-22T16:26:35.438Z,31.50
2022-10-22T16:29:05.152Z,28.83
2022-10-22T16:31:33.351Z,25.80
2022-10-22T16:34:01.745Z,31.67
2022-10-22T16:36:30.408Z,27.73
2022-10-22T16:38:58.710Z,28.07
2022-10-22T16:41:34.926Z,22.40
2022-10-22T16:44:07.776Z,21.47
2022-10-22T16:46:39.546Z,22.87
2022-10-22T16:49:08.913Z,21.73
2022-10-22T16:51:39.333Z,21.30
2022-10-22T16:54:11.317Z,23.23
2022-10-22T16:56:40.714Z,23.60
2022-10-22T16:59:09.040Z,24.00
2022-10-22T17:01:40.634Z,22.90
2022-10-22T17:04:10.101Z,18.63
2022-10-22T17:06:37.772Z,21.47
2022-10-22T17:09:06.486Z,23.47
2022-10-22T17:11:36.445Z,24.47
2022-10-22T17:14:06.646Z,28.03
2022-10-22T17:16:34.948Z,25.23
2022-10-22T17:19:04.223Z,24.57
2022-10-22T17:21:31.891Z,27.80
2022-10-22T17:24:00.381Z,29.23
2022-10-22T17:26:28.673Z,29.10
2022-10-22T17:28:55.980Z,28.17
2022-10-22T17:31:28.119Z,30.47
2022-10-22T17:33:57.730Z,32.57
2022-10-22T17:36:28.396Z,37.00
2022-10-22T17:39:02.211Z,27.83
2022-10-22T17:41:33.270Z,29.00
2022-10-22T17:44:04.060Z,25.90
2022-10-22T17:46:32.999Z,29.57
2022-10-22T17:49:08.408Z,30.53
2022-10-22T17:51:36.023Z,34.17
2022-10-22T17:54:07.319Z,26.07
2022-10-22T17:56:40.400Z,23.07
2022-10-22T17:59:14.806Z,25.77
2022-10-22T18:01:47.657Z,23.33
2022-10-22T18:04:19.024Z,23.17
2022-10-22T18:06:48.414Z,19.50
2022-10-22T18:09:19.343Z,19.53
2022-10-22T18:11:51.751Z,21.70
2022-10-22T18:14:21.973Z,20.63
2022-10-22T18:16:51.179Z,19.83
2022-10-22T18:19:23.229Z,19.73
2022-10-22T18:21:51.926Z,20.43
2022-10-22T18:24:19.083Z,19.93
2022-10-22T18:26:45.997Z,20.40
2022-10-22T18:29:16.114Z,19.13
2022-10-22T18:31:45.510Z,17.67
2022-10-22T18:34:15.805Z,21.07
2022-10-22T18:36:46.182Z,20.97
2022-10-22T18:39:15.658Z,19.47
2022-10-22T18:41:44.803Z,20.23
2022-10-22T18:44:14.487Z,21.77
2022-10-22T18:46:42.097Z,21.70
2022-10-22T18:49:16.202Z,18.63
2022-10-22T18:51:45.640Z,17.87
2022-10-22T18:54:25.815Z,19.63
2022-10-22T18:57:00.588Z,20.77
2022-10-22T18:59:31.881Z,19.80
2022-10-22T19:01:59.786Z,18.50
2022-10-22T19:04:33.615Z,19.67
2022-10-22T19:07:02.394Z,18.23
2022-10-22T19:09:31.632Z,18.50
2022-10-22T19:11:58.536Z,20.33
2022-10-22T19:14:26.887Z,20.47
2022-10-22T19:16:54.649Z,17.27
2022-10-22T19:19:22.711Z,22.67
2022-10-22T19:21:51.662Z,24.63
2022-10-22T19:24:20.802Z,21.53
2022-10-22T19:26:49.849Z,20.77
2022-10-22T19:29:20.407Z,21.33
2022-10-22T19:31:47.850Z,22.07
2022-10-22T19:34:16.539Z,22.37
2022-10-22T19:36:43.609Z,20.70
2022-10-22T19:39:15.548Z,19.13
2022-10-22T19:41:45.761Z,21.10
2022-10-22T19:44:14.026Z,19.93
2022-10-22T19:46:42.315Z,20.37
2022-10-22T19:49:11.217Z,20.57
2022-10-22T19:51:40.201Z,22.60
2022-10-22T19:54:12.222Z,21.00
2022-10-22T19:56:41.562Z,23.23
2022-10-22T19:59:09.901Z,20.93
2022-10-22T20:01:38.935Z,20.03
2022-10-22T20:04:06.620Z,19.63
2022-10-22T20:06:33.506Z,23.30
2022-10-22T20:09:01.179Z,20.07
2022-10-22T20:11:30.481Z,22.20
2022-10-22T20:13:58.551Z,20.53
2022-10-22T20:16:29.915Z,18.17
2022-10-22T20:19:06.036Z,18.70
2022-10-22T20:21:35.123Z,20.33
2022-10-22T20:24:02.937Z,21.30
2022-10-22T20:26:31.690Z,20.77
2022-10-22T20:28:59.835Z,21.00
2022-10-22T20:31:29.679Z,19.63
2022-10-22T20:34:01.153Z,19.47
2022-10-22T20:36:30.681Z,18.70
2022-10-22T20:39:06.287Z,20.27
2022-10-22T20:41:37.751Z,17.70
2022-10-22T20:44:08.306Z,17.27
2022-10-22T20:46:36.914Z,17.57
2022-10-22T20:49:16.084Z,16.50
2022-10-22T20:51:45.259Z,17.37
2022-10-22T20:54:15.123Z,15.63
2022-10-22T20:56:43.418Z,18.33
2022-10-22T20:59:12.496Z,16.90
2022-10-22T21:01:42.874Z,17.27
2022-10-22T21:04:10.437Z,18.57
2022-10-22T21:06:40.485Z,17.30
2022-10-22T21:09:13.891Z,15.70
2022-10-22T21:11:43.189Z,15.07
2022-10-22T21:14:12.507Z,19.27
2022-10-22T21:16:46.304Z,15.87
2022-10-22T21:19:15.018Z,15.63
2022-10-22T21:21:41.930Z,16.00
2022-10-22T21:24:09.115Z,16.43
2022-10-22T21:26:40.819Z,15.30
2022-10-22T21:29:12.419Z,12.67
2022-10-22T21:31:41.097Z,13.77
2022-10-22T21:34:08.698Z,9.93
2022-10-22T21:36:37.051Z,10.67
2022-10-22T21:39:06.719Z,10.90
2022-10-22T21:41:33.975Z,8.63
2022-10-22T21:44:02.189Z,9.00
2022-10-22T21:46:30.961Z,9.73
2022-10-22T21:49:02.249Z,7.00
2022-10-22T21:51:33.887Z,6.87
2022-10-22T21:54:00.829Z,6.30
2022-10-22T21:56:34.754Z,5.33
2022-10-22T21:59:06.186Z,4.77
2022-10-22T22:01:34.916Z,4.63
2022-10-22T22:04:02.665Z,3.70
2022-10-22T22:06:33.477Z,3.67
2022-10-22T22:09:02.375Z,4.17
2022-10-22T22:11:30.622Z,3.93
2022-10-22T22:13:59.118Z,2.83
2022-10-22T22:16:30.637Z,3.43
2022-10-22T22:18:59.893Z,3.30
2022-10-22T22:21:27.178Z,3.07
2022-10-22T22:23:54.507Z,3.63
2022-10-22T22:26:28.597Z,3.53
2022-10-22T22:28:58.681Z,3.87
2022-10-22T22:31:28.552Z,3.73
2022-10-22T22:34:06.913Z,3.87
2022-10-22T22:36:40.784Z,3.50
2022-10-22T22:39:11.359Z,3.43
2022-10-22T22:41:40.457Z,4.37
2022-10-22T22:44:08.189Z,4.60
2022-10-22T22:46:37.391Z,3.37
2022-10-22T22:49:05.919Z,3.73
2022-10-22T22:51:34.677Z,4.07
2022-10-22T22:54:03.314Z,4.23
2022-10-22T22:56:32.734Z,3.87
2022-10-22T22:58:59.750Z,3.10
2022-10-22T23:01:38.839Z,3.97
2022-10-22T23:04:19.406Z,2.83
2022-10-22T23:06:47.119Z,3.80
2022-10-22T23:09:17.292Z,3.10
2022-10-22T23:11:47.284Z,3.47
2022-10-22T23:14:17.861Z,2.73
2022-10-22T23:16:47.957Z,2.70
2022-10-22T23:19:18.494Z,3.20
2022-10-22T23:21:55.047Z,3.70
2022-10-22T23:24:26.535Z,4.87
2022-10-22T23:26:56.478Z,4.80
2022-10-22T23:29:27.374Z,3.90
2022-10-22T23:31:55.600Z,5.80
2022-10-22T23:34:25.295Z,3.90
2022-10-22T23:36:53.901Z,4.27
2022-10-22T23:39:24.458Z,4.03
2022-10-22T23:41:53.180Z,4.73
2022-10-22T23:44:22.159Z,4.30
2022-10-22T23:46:51.054Z,4.93
2022-10-22T23:49:18.796Z,3.97
2022-10-22T23:51:46.710Z,4.30
2022-10-22T23:54:16.539Z,3.97
2022-10-22T23:56:43.530Z,4.20
2022-10-22T23:59:11.295Z,3.87
